createdAt,value
2023-01-26T00:01:25.483Z,1.10
2023-01-26T00:03:52.218Z,1.30
2023-01-26T00:06:20.306Z,1.30
2023-01-26T00:08:52.537Z,1.20
2023-01-26T00:11:24.385Z,1.20
2023-01-26T00:13:51.458Z,1.10
2023-01-26T00:16:18.250Z,1.20
2023-01-26T00:18:45.327Z,1.20
2023-01-26T00:21:15.157Z,1.20
2023-01-26T00:23:42.097Z,1.10
2023-01-26T00:26:11.143Z,0.90
2023-01-26T00:28:37.747Z,1.00
2023-01-26T00:31:07.066Z,0.90
2023-01-26T00:33:33.920Z,1.10
2023-01-26T00:36:00.715Z,1.00
2023-01-26T00:38:27.421Z,1.10
2023-01-26T00:40:54.415Z,0.90
2023-01-26T00:43:21.210Z,1.00
2023-01-26T00:45:47.904Z,1.10
2023-01-26T00:48:14.557Z,1.10
2023-01-26T00:50:41.267Z,1.10
2023-01-26T00:53:07.932Z,1.20
2023-01-26T00:55:34.602Z,1.20
2023-01-26T00:58:06.042Z,1.30
2023-01-26T01:00:33.886Z,1.30
2023-01-26T01:03:00.813Z,1.20
2023-01-26T01:05:29.752Z,1.20
2023-01-26T01:07:56.579Z,1.10
2023-01-26T01:10:24.324Z,1.20
2023-01-26T01:12:50.941Z,1.20
2023-01-26T01:15:17.772Z,1.20
2023-01-26T01:17:44.486Z,1.20
2023-01-26T01:20:12.516Z,1.20
2023-01-26T01:22:39.339Z,1.20
2023-01-26T01:25:06.208Z,1.20
2023-01-26T01:27:32.842Z,1.20
2023-01-26T01:29:59.501Z,1.10
2023-01-26T01:32:26.232Z,1.10
2023-01-26T01:34:52.857Z,1.20
2023-01-26T01:37:19.575Z,1.20
2023-01-26T01:39:46.405Z,1.10
2023-01-26T01:42:13.298Z,1.20
2023-01-26T01:44:39.894Z,1.10
2023-01-26T01:47:20.496Z,1.10
2023-01-26T01:49:49.919Z,1.20
2023-01-26T01:52:21.487Z,1.10
2023-01-26T01:54:56.203Z,1.10
2023-01-26T01:57:29.159Z,1.10
2023-01-26T02:00:07.201Z,1.10
2023-01-26T02:02:35.704Z,1.10
2023-01-26T02:05:12.661Z,1.20
2023-01-26T02:07:39.704Z,1.20
2023-01-26T02:10:19.423Z,1.20
2023-01-26T02:12:50.415Z,1.10
2023-01-26T02:15:17.134Z,1.10
2023-01-26T02:17:44.361Z,1.20
2023-01-26T02:20:28.563Z,1.00
2023-01-26T02:23:01.676Z,1.10
2023-01-26T02:26:04.621Z,1.20
2023-01-26T02:28:32.813Z,1.20
2023-01-26T02:31:00.666Z,1.10
2023-01-26T02:33:30.593Z,1.20
2023-01-26T02:35:57.379Z,1.10
2023-01-26T02:38:28.920Z,1.00
2023-01-26T02:40:59.771Z,1.00
2023-01-26T02:43:27.663Z,1.00
2023-01-26T02:45:55.001Z,1.00
2023-01-26T02:48:41.381Z,1.00
2023-01-26T02:51:08.232Z,1.10
2023-01-26T02:53:35.083Z,1.20
2023-01-26T02:56:01.915Z,1.20
2023-01-26T02:58:28.657Z,1.20
2023-01-26T03:00:55.953Z,1.20
2023-01-26T03:03:25.757Z,1.20
2023-01-26T03:05:52.938Z,1.20
2023-01-26T03:08:19.592Z,1.20
2023-01-26T03:10:47.571Z,1.10
2023-01-26T03:13:14.285Z,1.20
2023-01-26T03:15:52.352Z,1.10
2023-01-26T03:18:39.543Z,1.10
2023-01-26T03:21:33.125Z,1.10
2023-01-26T03:24:19.013Z,1.20
2023-01-26T03:27:04.927Z,1.10
2023-01-26T03:29:32.098Z,1.20
2023-01-26T03:32:02.066Z,1.20
2023-01-26T03:34:29.594Z,1.20
2023-01-26T03:36:56.622Z,1.30
2023-01-26T03:39:41.665Z,1.20
2023-01-26T03:42:26.854Z,1.20
2023-01-26T03:45:12.331Z,1.10
2023-01-26T03:47:57.801Z,1.10
2023-01-26T03:50:43.436Z,1.20
2023-01-26T03:53:33.761Z,1.20
2023-01-26T03:56:19.953Z,1.10
2023-01-26T03:58:50.357Z,1.20
2023-01-26T04:01:26.253Z,1.10
2023-01-26T04:04:13.221Z,1.10
2023-01-26T04:07:00.686Z,1.00
2023-01-26T04:09:27.735Z,1.20
2023-01-26T04:11:54.598Z,1.20
2023-01-26T04:14:49.884Z,1.10
2023-01-26T04:17:36.743Z,1.20
2023-01-26T04:20:23.162Z,1.10
2023-01-26T04:22:49.812Z,1.10
2023-01-26T04:25:18.505Z,1.10
2023-01-26T04:27:46.068Z,1.10
2023-01-26T04:30:14.861Z,1.10
2023-01-26T04:32:42.085Z,1.00
2023-01-26T04:35:10.320Z,1.00
2023-01-26T04:37:37.665Z,1.10
2023-01-26T04:40:05.422Z,1.20
2023-01-26T04:42:32.072Z,1.10
2023-01-26T04:44:58.854Z,1.10
2023-01-26T04:47:27.056Z,1.00
2023-01-26T04:49:55.551Z,1.00
2023-01-26T04:52:22.200Z,1.10
2023-01-26T04:54:48.945Z,1.00
2023-01-26T04:57:15.619Z,0.90
2023-01-26T04:59:42.447Z,1.00
2023-01-26T05:02:09.410Z,1.00
2023-01-26T05:04:36.167Z,1.00
2023-01-26T05:07:03.005Z,1.00
2023-01-26T05:09:29.648Z,0.90
2023-01-26T05:12:16.285Z,0.90
2023-01-26T05:14:43.011Z,0.90
2023-01-26T05:17:09.736Z,0.90
2023-01-26T05:19:36.398Z,1.00
2023-01-26T05:22:03.050Z,0.90
2023-01-26T05:24:29.718Z,1.00
2023-01-26T05:27:16.443Z,0.90
2023-01-26T05:29:43.081Z,0.90
2023-01-26T05:32:09.805Z,1.00
2023-01-26T05:34:36.424Z,1.00
2023-01-26T05:37:03.287Z,1.00
2023-01-26T05:39:30.058Z,1.00
2023-01-26T05:41:56.969Z,1.00
2023-01-26T05:44:24.908Z,1.00
2023-01-26T05:46:52.233Z,0.90
2023-01-26T05:49:18.892Z,1.00
2023-01-26T05:51:45.523Z,1.00
2023-01-26T05:54:12.275Z,1.00
2023-01-26T05:56:38.894Z,1.00
2023-01-26T05:59:05.596Z,1.10
2023-01-26T06:01:32.208Z,1.00
2023-01-26T06:03:58.968Z,1.00
2023-01-26T06:06:25.748Z,0.90
2023-01-26T06:08:52.404Z,0.90
2023-01-26T06:11:19.408Z,1.10
2023-01-26T06:13:46.193Z,0.80
2023-01-26T06:16:12.827Z,0.80
2023-01-26T06:18:39.423Z,1.00
2023-01-26T06:21:06.079Z,0.80
2023-01-26T06:23:32.847Z,0.70
2023-01-26T06:26:00.847Z,2.90
2023-01-26T06:28:31.170Z,4.70
2023-01-26T06:31:05.220Z,4.70
2023-01-26T06:33:34.926Z,4.40
2023-01-26T06:36:06.735Z,4.30
2023-01-26T06:38:33.420Z,4.10
2023-01-26T06:41:04.690Z,4.20
2023-01-26T06:43:32.510Z,4.20
2023-01-26T06:45:59.841Z,4.40
2023-01-26T06:48:27.966Z,4.50
2023-01-26T06:50:57.859Z,3.20
2023-01-26T06:53:43.432Z,3.40
2023-01-26T06:56:10.153Z,2.70
2023-01-26T06:58:36.802Z,3.00
2023-01-26T07:01:03.472Z,3.20
2023-01-26T07:03:30.615Z,3.10
2023-01-26T07:05:57.241Z,4.00
2023-01-26T07:08:23.901Z,4.30
2023-01-26T07:10:51.111Z,3.70
2023-01-26T07:13:17.891Z,2.40
2023-01-26T07:15:44.568Z,1.80
2023-01-26T07:18:11.555Z,2.00
2023-01-26T07:20:38.303Z,1.70
2023-01-26T07:23:04.962Z,1.50
2023-01-26T07:25:31.599Z,1.50
2023-01-26T07:27:59.193Z,1.40
2023-01-26T07:30:26.634Z,1.40
2023-01-26T07:32:53.301Z,1.30
2023-01-26T07:35:19.932Z,1.40
2023-01-26T07:37:46.544Z,1.40
2023-01-26T07:40:13.632Z,1.40
2023-01-26T07:42:40.407Z,1.40
2023-01-26T07:45:07.784Z,1.30
2023-01-26T07:47:35.887Z,1.30
2023-01-26T07:50:02.578Z,1.20
2023-01-26T07:52:29.325Z,1.20
2023-01-26T07:54:55.964Z,1.30
2023-01-26T07:57:22.581Z,1.30
2023-01-26T07:59:49.223Z,1.30
2023-01-26T08:02:16.038Z,1.30
2023-01-26T08:04:42.681Z,1.30
2023-01-26T08:07:09.333Z,1.20
2023-01-26T08:09:36.074Z,1.20
2023-01-26T08:12:02.860Z,1.20
2023-01-26T08:14:45.100Z,1.10
2023-01-26T08:17:12.962Z,1.10
2023-01-26T08:19:39.611Z,1.20
2023-01-26T08:22:06.351Z,1.30
2023-01-26T08:24:32.949Z,1.20
2023-01-26T08:26:59.556Z,1.20
2023-01-26T08:29:26.147Z,1.20
2023-01-26T08:31:53.483Z,1.20
2023-01-26T08:34:22.457Z,1.20
2023-01-26T08:36:49.279Z,1.10
2023-01-26T08:39:15.980Z,1.20
2023-01-26T08:41:42.619Z,1.30
2023-01-26T08:44:10.452Z,1.30
2023-01-26T08:46:37.177Z,1.20
2023-01-26T08:49:03.936Z,1.20
2023-01-26T08:51:30.883Z,1.20
2023-01-26T08:53:57.604Z,1.20
2023-01-26T08:56:24.557Z,1.30
2023-01-26T08:58:51.189Z,1.20
2023-01-26T09:01:18.233Z,1.00
2023-01-26T09:03:45.089Z,1.20
2023-01-26T09:06:14.601Z,1.10
2023-01-26T09:08:41.686Z,1.10
2023-01-26T09:11:08.997Z,1.20
2023-01-26T09:13:37.194Z,1.20
2023-01-26T09:16:08.209Z,1.30
2023-01-26T09:18:35.121Z,1.20
2023-01-26T09:21:09.834Z,1.20
2023-01-26T09:23:36.713Z,1.20
2023-01-26T09:26:04.200Z,1.20
2023-01-26T09:28:30.960Z,1.30
2023-01-26T09:30:57.743Z,1.20
2023-01-26T09:33:25.364Z,1.20
2023-01-26T09:35:51.991Z,1.10
2023-01-26T09:38:18.706Z,1.10
2023-01-26T09:41:05.140Z,1.00
2023-01-26T09:43:51.015Z,1.10
2023-01-26T09:46:25.200Z,1.20
2023-01-26T09:49:05.964Z,1.20
2023-01-26T09:51:37.638Z,1.20
2023-01-26T09:54:26.352Z,1.10
2023-01-26T09:56:55.525Z,1.20
2023-01-26T09:59:44.314Z,1.20
2023-01-26T10:02:29.253Z,1.20
2023-01-26T10:04:59.743Z,1.20
2023-01-26T10:07:26.435Z,1.30
2023-01-26T10:09:53.912Z,1.30
2023-01-26T10:12:36.228Z,1.30
2023-01-26T10:15:21.039Z,1.30
2023-01-26T10:17:48.931Z,1.10
2023-01-26T10:20:15.572Z,1.10
2023-01-26T10:22:48.637Z,1.20
2023-01-26T10:25:21.262Z,1.10
2023-01-26T10:27:48.007Z,1.20
2023-01-26T10:30:20.590Z,1.20
2023-01-26T10:32:52.986Z,1.00
2023-01-26T10:35:24.630Z,1.10
2023-01-26T10:37:53.023Z,1.10
2023-01-26T10:40:20.758Z,1.10
2023-01-26T10:42:58.709Z,1.10
2023-01-26T10:45:31.623Z,1.10
2023-01-26T10:48:18.174Z,1.30
2023-01-26T10:50:46.232Z,1.20
2023-01-26T10:53:28.213Z,1.20
2023-01-26T10:56:01.335Z,1.20
2023-01-26T10:58:51.864Z,1.30
2023-01-26T11:01:23.185Z,1.30
2023-01-26T11:04:07.339Z,1.30
2023-01-26T11:06:35.421Z,1.30
2023-01-26T11:09:19.120Z,1.30
2023-01-26T11:12:02.231Z,1.30
2023-01-26T11:14:30.422Z,1.40
2023-01-26T11:17:09.859Z,1.30
2023-01-26T11:20:01.977Z,1.20
2023-01-26T11:22:42.260Z,1.40
2023-01-26T11:25:27.112Z,1.40
2023-01-26T11:27:56.562Z,1.40
2023-01-26T11:30:29.153Z,1.40
2023-01-26T11:32:55.711Z,1.50
2023-01-26T11:35:37.570Z,1.40
2023-01-26T11:38:40.920Z,1.20
2023-01-26T11:41:26.250Z,1.30
2023-01-26T11:44:17.545Z,1.40
2023-01-26T11:47:03.890Z,1.50
2023-01-26T11:49:46.589Z,1.50
2023-01-26T11:52:27.255Z,1.50
2023-01-26T11:55:32.242Z,1.50
2023-01-26T11:58:23.351Z,1.40
2023-01-26T12:00:57.258Z,1.50
2023-01-26T12:03:41.630Z,1.60
2023-01-26T12:06:20.002Z,1.50
2023-01-26T12:09:05.419Z,1.50
2023-01-26T12:12:05.222Z,1.60
2023-01-26T12:14:47.738Z,1.70
2023-01-26T12:17:51.072Z,1.60
2023-01-26T12:20:45.471Z,1.60
2023-01-26T12:23:25.528Z,1.60
2023-01-26T12:26:03.729Z,1.50
2023-01-26T12:28:36.799Z,1.40
2023-01-26T12:31:12.920Z,1.30
2023-01-26T12:33:39.738Z,1.40
2023-01-26T12:36:28.575Z,1.60
2023-01-26T12:39:08.084Z,1.50
2023-01-26T12:41:53.361Z,1.60
2023-01-26T12:44:33.763Z,1.50
2023-01-26T12:47:19.477Z,1.50
2023-01-26T12:50:09.583Z,1.60
2023-01-26T12:52:43.588Z,1.60
2023-01-26T12:55:18.402Z,1.50
2023-01-26T12:58:02.172Z,1.50
2023-01-26T13:00:35.289Z,1.40
2023-01-26T13:03:22.365Z,1.40
2023-01-26T13:05:58.606Z,1.30
2023-01-26T13:08:31.218Z,1.40
2023-01-26T13:11:10.849Z,1.50
2023-01-26T13:13:57.320Z,1.50
2023-01-26T13:16:33.188Z,1.40
2023-01-26T13:19:01.765Z,1.40
2023-01-26T13:21:38.459Z,1.50
2023-01-26T13:24:25.491Z,1.50
2023-01-26T13:26:59.626Z,1.40
2023-01-26T13:29:28.949Z,1.30
2023-01-26T13:31:57.303Z,1.20
2023-01-26T13:34:36.723Z,1.30
2023-01-26T13:37:14.822Z,1.30
2023-01-26T13:39:44.202Z,1.20
2023-01-26T13:42:27.567Z,1.30
2023-01-26T13:45:06.409Z,1.20
2023-01-26T13:47:40.509Z,1.30
2023-01-26T13:50:32.259Z,1.30
2023-01-26T13:52:59.720Z,1.30
2023-01-26T13:55:35.301Z,1.30
2023-01-26T13:58:16.876Z,1.20
2023-01-26T14:00:57.215Z,1.20
2023-01-26T14:03:24.241Z,1.20
2023-01-26T14:06:13.902Z,1.20
2023-01-26T14:08:48.080Z,1.20
2023-01-26T14:11:21.804Z,1.20
2023-01-26T14:13:56.200Z,1.20
2023-01-26T14:16:35.224Z,1.10
2023-01-26T14:19:16.636Z,1.00
2023-01-26T14:21:53.477Z,1.10
2023-01-26T14:24:27.836Z,1.10
2023-01-26T14:26:54.792Z,1.00
2023-01-26T14:29:26.554Z,1.00
2023-01-26T14:31:56.033Z,1.00
2023-01-26T14:34:25.443Z,0.90
2023-01-26T14:37:15.351Z,0.90
2023-01-26T14:39:44.882Z,1.00
2023-01-26T14:42:21.685Z,0.90
2023-01-26T14:44:48.394Z,1.00
2023-01-26T14:47:20.693Z,0.90
2023-01-26T14:50:17.856Z,0.90
2023-01-26T14:52:46.050Z,0.80
2023-01-26T14:55:27.885Z,0.80
2023-01-26T14:57:58.639Z,1.00
2023-01-26T15:00:34.203Z,0.90
2023-01-26T15:03:17.049Z,0.80
2023-01-26T15:05:44.069Z,0.70
2023-01-26T15:08:20.863Z,0.80
2023-01-26T15:11:16.057Z,0.70
2023-01-26T15:13:45.234Z,0.80
2023-01-26T15:16:20.238Z,0.70
2023-01-26T15:18:58.651Z,0.80
2023-01-26T15:21:33.565Z,0.80
2023-01-26T15:24:00.463Z,0.80
2023-01-26T15:26:30.525Z,0.60
2023-01-26T15:29:05.824Z,0.90
2023-01-26T15:31:36.444Z,0.60
2023-01-26T15:34:04.915Z,0.60
2023-01-26T15:36:33.312Z,0.70
2023-01-26T15:39:17.348Z,0.70
2023-01-26T15:42:01.698Z,0.60
2023-01-26T15:44:28.581Z,0.80
2023-01-26T15:46:56.516Z,0.70
2023-01-26T15:49:23.538Z,0.70
2023-01-26T15:51:51.676Z,0.70
2023-01-26T15:54:19.854Z,0.70
2023-01-26T15:56:46.501Z,0.70
2023-01-26T15:59:13.225Z,0.70
2023-01-26T16:01:40.122Z,0.60
2023-01-26T16:04:09.553Z,0.70
2023-01-26T16:06:36.196Z,0.70
2023-01-26T16:09:03.205Z,0.70
2023-01-26T16:11:34.005Z,0.80
2023-01-26T16:14:04.162Z,0.80
2023-01-26T16:16:32.541Z,0.70
2023-01-26T16:18:59.339Z,0.70
2023-01-26T16:21:31.272Z,0.70
2023-01-26T16:23:58.066Z,0.70
2023-01-26T16:26:26.744Z,0.70
2023-01-26T16:28:53.979Z,0.70
2023-01-26T16:31:22.419Z,0.70
2023-01-26T16:33:50.064Z,0.80
2023-01-26T16:36:20.644Z,0.80
2023-01-26T16:38:47.975Z,0.70
2023-01-26T16:41:29.369Z,0.90
2023-01-26T16:43:58.410Z,0.80
2023-01-26T16:46:25.851Z,0.90
2023-01-26T16:48:52.902Z,0.70
2023-01-26T16:51:40.040Z,0.60
2023-01-26T16:54:06.703Z,0.80
2023-01-26T16:56:33.455Z,0.70
2023-01-26T16:59:00.110Z,0.90
2023-01-26T17:01:32.872Z,0.90
2023-01-26T17:03:59.759Z,1.00
2023-01-26T17:06:26.902Z,0.90
2023-01-26T17:08:53.573Z,0.90
2023-01-26T17:11:27.606Z,0.80
2023-01-26T17:13:56.279Z,0.90
2023-01-26T17:16:32.983Z,0.90
2023-01-26T17:18:59.738Z,0.80
2023-01-26T17:21:29.484Z,0.70
2023-01-26T17:23:58.703Z,0.80
2023-01-26T17:26:25.468Z,0.80
2023-01-26T17:28:55.970Z,0.70
2023-01-26T17:31:23.852Z,0.70
2023-01-26T17:33:50.872Z,0.70
2023-01-26T17:36:19.012Z,0.50
2023-01-26T17:38:46.404Z,0.50
2023-01-26T17:41:13.026Z,0.70
2023-01-26T17:43:39.639Z,0.80
2023-01-26T17:46:07.922Z,0.70
2023-01-26T17:48:37.520Z,0.60
2023-01-26T17:51:08.924Z,0.60
2023-01-26T17:53:40.244Z,0.80
2023-01-26T17:56:08.750Z,0.50
2023-01-26T17:58:36.537Z,0.50
2023-01-26T18:01:04.287Z,0.60
2023-01-26T18:03:30.937Z,0.60
2023-01-26T18:05:57.758Z,0.60
2023-01-26T18:08:25.471Z,0.60
2023-01-26T18:11:03.297Z,0.50
2023-01-26T18:13:31.767Z,0.50
2023-01-26T18:15:59.022Z,0.50
2023-01-26T18:18:27.952Z,0.40
2023-01-26T18:20:55.696Z,0.50
2023-01-26T18:23:24.323Z,0.50
2023-01-26T18:25:51.008Z,0.50
2023-01-26T18:28:17.767Z,0.50
2023-01-26T18:30:44.494Z,0.50
2023-01-26T18:33:11.236Z,0.60
2023-01-26T18:35:37.902Z,0.50
2023-01-26T18:38:04.677Z,0.40
2023-01-26T18:40:31.346Z,0.40
2023-01-26T18:42:58.223Z,0.30
2023-01-26T18:45:24.850Z,0.30
2023-01-26T18:47:51.541Z,0.40
2023-01-26T18:50:18.484Z,0.40
2023-01-26T18:52:45.195Z,0.40
2023-01-26T18:55:12.310Z,0.40
2023-01-26T18:57:39.630Z,0.50
2023-01-26T19:00:08.225Z,0.50
2023-01-26T19:02:39.417Z,0.50
2023-01-26T19:05:07.047Z,0.40
2023-01-26T19:07:33.941Z,0.50
2023-01-26T19:10:00.582Z,0.50
2023-01-26T19:12:27.246Z,0.50
2023-01-26T19:14:53.843Z,0.60
2023-01-26T19:17:20.592Z,0.40
2023-01-26T19:19:47.622Z,0.40
2023-01-26T19:22:14.292Z,0.60
2023-01-26T19:24:42.877Z,0.60
2023-01-26T19:27:09.943Z,0.50
2023-01-26T19:29:36.642Z,0.50
2023-01-26T19:32:03.489Z,0.60
2023-01-26T19:34:31.868Z,0.60
2023-01-26T19:36:58.539Z,0.60
2023-01-26T19:39:25.224Z,0.50
2023-01-26T19:41:52.971Z,0.50
2023-01-26T19:44:19.791Z,0.60
2023-01-26T19:46:46.430Z,0.60
2023-01-26T19:49:15.032Z,0.60
2023-01-26T19:51:41.739Z,0.60
2023-01-26T19:54:09.006Z,0.50
2023-01-26T19:56:36.294Z,0.50
2023-01-26T19:59:06.136Z,0.50
2023-01-26T20:01:33.295Z,0.60
2023-01-26T20:04:03.055Z,0.60
2023-01-26T20:06:32.763Z,0.50
2023-01-26T20:09:00.092Z,0.50
2023-01-26T20:11:29.472Z,0.50
2023-01-26T20:13:57.209Z,0.50
2023-01-26T20:16:24.695Z,0.60
2023-01-26T20:18:51.390Z,0.60
2023-01-26T20:21:18.051Z,0.70
2023-01-26T20:23:53.880Z,0.70
2023-01-26T20:26:21.923Z,0.60
2023-01-26T20:28:48.672Z,0.60
2023-01-26T20:31:18.042Z,0.70
2023-01-26T20:33:48.010Z,0.70
2023-01-26T20:36:20.811Z,0.70
2023-01-26T20:38:48.581Z,0.70
2023-01-26T20:41:19.066Z,0.60
2023-01-26T20:43:58.749Z,0.50
2023-01-26T20:46:32.427Z,0.60
2023-01-26T20:48:59.598Z,0.60
2023-01-26T20:51:30.221Z,0.60
2023-01-26T20:53:57.663Z,0.60
2023-01-26T20:56:24.410Z,0.70
2023-01-26T20:58:53.766Z,0.70
2023-01-26T21:01:21.891Z,0.70
2023-01-26T21:03:48.817Z,0.60
2023-01-26T21:06:19.002Z,0.70
2023-01-26T21:08:46.890Z,0.80
2023-01-26T21:11:15.999Z,0.80
2023-01-26T21:13:43.594Z,0.70
2023-01-26T21:16:13.285Z,0.70
2023-01-26T21:18:40.145Z,0.60
2023-01-26T21:21:10.328Z,0.70
2023-01-26T21:23:36.990Z,0.70
2023-01-26T21:26:11.172Z,0.70
2023-01-26T21:28:37.812Z,0.60
2023-01-26T21:31:06.240Z,0.60
2023-01-26T21:33:34.336Z,0.60
2023-01-26T21:36:02.804Z,0.60
2023-01-26T21:38:35.202Z,0.60
2023-01-26T21:41:29.529Z,0.60
2023-01-26T21:44:01.670Z,0.60
2023-01-26T21:46:29.117Z,0.60
2023-01-26T21:48:56.194Z,0.60
2023-01-26T21:51:42.298Z,0.50
2023-01-26T21:54:08.992Z,0.60
2023-01-26T21:56:36.068Z,0.60
2023-01-26T21:59:06.238Z,0.60
2023-01-26T22:01:35.520Z,0.60
2023-01-26T22:04:04.837Z,0.60
2023-01-26T22:06:31.721Z,0.50
2023-01-26T22:08:58.594Z,0.50
2023-01-26T22:11:26.149Z,0.60
2023-01-26T22:13:53.750Z,0.60
2023-01-26T22:16:20.823Z,0.70
2023-01-26T22:18:50.619Z,0.60
2023-01-26T22:21:18.364Z,0.60
2023-01-26T22:23:45.455Z,0.50
2023-01-26T22:26:17.302Z,0.50
2023-01-26T22:28:50.027Z,0.40
2023-01-26T22:31:19.828Z,0.40
2023-01-26T22:33:47.371Z,0.50
2023-01-26T22:36:14.463Z,0.50
2023-01-26T22:38:41.917Z,0.60
2023-01-26T22:41:14.628Z,0.50
2023-01-26T22:43:42.280Z,0.60
2023-01-26T22:46:11.647Z,0.60
2023-01-26T22:48:38.483Z,0.60
2023-01-26T22:51:18.345Z,0.40
2023-01-26T22:53:45.543Z,0.40
2023-01-26T22:56:12.403Z,0.40
2023-01-26T22:58:56.558Z,0.50
2023-01-26T23:01:26.043Z,0.50
2023-01-26T23:03:54.440Z,0.50
2023-01-26T23:06:21.849Z,0.50
2023-01-26T23:08:48.722Z,0.40
2023-01-26T23:11:16.768Z,0.40
2023-01-26T23:13:45.030Z,0.50
2023-01-26T23:16:12.711Z,0.50
2023-01-26T23:18:39.969Z,0.60
2023-01-26T23:21:07.963Z,0.60
2023-01-26T23:23:35.071Z,0.50
2023-01-26T23:26:02.075Z,0.50
2023-01-26T23:28:31.729Z,0.60
2023-01-26T23:30:59.477Z,0.60
2023-01-26T23:33:28.293Z,0.60
2023-01-26T23:35:55.421Z,0.50
2023-01-26T23:38:24.486Z,0.50
2023-01-26T23:40:51.584Z,0.50
2023-01-26T23:43:19.317Z,0.40
2023-01-26T23:45:47.615Z,0.50
2023-01-26T23:48:14.843Z,0.50
2023-01-26T23:50:42.103Z,0.60
2023-01-26T23:53:09.097Z,0.60
2023-01-26T23:55:39.094Z,0.50
2023-01-26T23:58:05.927Z,0.50
